Rauville, South Dakota
Current Conditions -  °F | °C
As of 10:53 PM on Saturday 22 Nov 2014 (Local Time) from KATY Reporting Station
Broken Clouds Broken Clouds  
Wind Chill: 29°   Ceiling: 11000
Heat Index: 34°   Visibility: 9mi
Dew Point: 32°   Wind: 6mph
Humidity: 92%   Direction: 160°SSE
Pressure: 29.39"   Gusts: NA
Location:  44.9156°N, 97.1699°W
Report Text: KATY 230453Z AUTO 16005KT 9SM BKN110 01/00 A2939 RMK AO2 SLP968 T00110000
Loading
Personal Weather Stations






























Interactive Weather Map New forecast layout! Learn more

10-Day Weather Forecast

Advertisements
Track Severe Weather on mobile